Time;durP1;ratioP1;P1;durP2;ratioP2;P2;SDS_P1;SDS_P2;PMS_P1;PMS_P2;Temp;Humidity;BMP_temperature;BMP_pressure;BME280_temperature;BME280_humidity;BME280_pressure;Samples;Min_cycle;Max_cycle;Signal;HPM_P1;HPM_P2
2022/01/06 00:01:25;;;;;;;8.70;2.70;;;4.50;99.90;;;;;;4900023;29;20748;-81
2022/01/06 00:03:52;;;;;;;7.85;2.83;;;4.50;99.90;;;;;;4900785;29;20401;-81
2022/01/06 00:06:19;;;;;;;10.50;2.97;;;4.50;99.90;;;;;;4900614;29;20407;-81
2022/01/06 00:08:45;;;;;;;9.97;2.90;;;4.50;99.90;;;;;;4901073;29;20470;-81
2022/01/06 00:11:11;;;;;;;11.47;3.20;;;4.60;99.90;;;;;;4882580;29;20408;-83
2022/01/06 00:16:39;;;;;;;9.40;2.88;;;4.60;99.90;;;;;;4898731;29;20397;-82
2022/01/06 00:24:19;;;;;;;5.88;2.90;;;4.00;99.90;;;;;;4898906;29;20428;-82
2022/01/06 00:26:45;;;;;;;5.80;2.70;;;3.90;99.90;;;;;;4898070;29;20492;-81
2022/01/06 00:29:11;;;;;;;4.60;2.72;;;3.70;99.90;;;;;;4881473;29;20397;-81
2022/01/06 00:31:37;;;;;;;6.18;2.80;;;3.60;99.90;;;;;;4897976;29;20387;-82
2022/01/06 00:34:05;;;;;;;8.52;3.00;;;3.50;99.90;;;;;;4897601;29;20464;-82
2022/01/06 00:36:30;;;;;;;9.20;3.10;;;3.40;99.90;;;;;;4897941;29;20867;-81
2022/01/06 00:38:56;;;;;;;6.05;2.85;;;3.40;99.90;;;;;;4880844;29;20398;-82
2022/01/06 00:41:22;;;;;;;5.43;2.83;;;3.40;99.90;;;;;;4880658;29;20801;-82
2022/01/06 00:43:48;;;;;;;7.78;3.03;;;3.40;99.90;;;;;;4897449;29;20401;-83
2022/01/06 00:46:14;;;;;;;8.35;3.00;;;3.30;99.90;;;;;;4897738;29;20697;-82
2022/01/06 00:48:40;;;;;;;7.43;3.03;;;3.40;99.90;;;;;;4896510;29;20389;-83
2022/01/06 00:51:08;;;;;;;6.87;3.23;;;3.40;99.90;;;;;;4880489;29;20382;-82
2022/01/06 00:53:35;;;;;;;6.35;3.25;;;3.40;99.90;;;;;;4897140;29;20385;-80
2022/01/06 00:56:00;;;;;;;6.10;3.10;;;3.50;99.90;;;;;;4880979;29;20901;-79
2022/01/06 00:58:26;;;;;;;8.35;2.90;;;3.40;99.90;;;;;;4897093;29;20959;-82
2022/01/06 01:00:51;;;;;;;8.50;2.70;;;3.30;99.90;;;;;;4882791;29;20416;-79
2022/01/06 01:03:19;;;;;;;8.27;2.93;;;3.20;99.90;;;;;;4903096;29;20385;-82
2022/01/06 01:05:46;;;;;;;6.95;3.00;;;3.10;99.90;;;;;;4898466;29;20377;-82
2022/01/06 01:08:12;;;;;;;7.28;2.70;;;3.10;99.90;;;;;;4880964;29;20381;-82
2022/01/06 01:10:38;;;;;;;8.07;2.78;;;3.00;99.90;;;;;;4897414;29;20875;-81
2022/01/06 01:13:10;;;;;;;7.43;2.90;;;2.90;99.90;;;;;;4896814;29;20408;-82
2022/01/06 01:15:43;;;;;;;6.38;3.13;;;2.80;99.90;;;;;;4897365;29;20413;-82
2022/01/06 01:18:10;;;;;;;7.78;2.88;;;2.80;99.90;;;;;;4880948;29;20405;-82
2022/01/06 01:20:35;;;;;;;11.15;3.53;;;2.70;99.90;;;;;;4880974;29;20393;-83
2022/01/06 01:23:01;;;;;;;6.60;2.70;;;2.60;99.90;;;;;;4880632;29;20442;-82
2022/01/06 01:25:27;;;;;;;6.15;2.30;;;2.60;99.90;;;;;;4897593;29;20397;-81
2022/01/06 01:27:55;;;;;;;6.57;2.40;;;2.50;99.90;;;;;;4880278;29;20416;-83
2022/01/06 01:30:28;;;;;;;6.60;2.30;;;2.60;99.90;;;;;;4897217;29;20860;-82
2022/01/06 01:32:54;;;;;;;5.07;2.15;;;2.60;99.90;;;;;;4897374;29;20888;-82
2022/01/06 01:35:20;;;;;;;4.90;2.00;;;2.60;99.90;;;;;;4880540;29;20769;-84
2022/01/06 01:37:46;;;;;;;4.70;1.80;;;2.70;99.90;;;;;;4880320;29;20385;-83
2022/01/06 01:40:12;;;;;;;4.88;1.88;;;2.80;99.90;;;;;;4897791;29;20396;-81
2022/01/06 01:42:38;;;;;;;7.57;2.30;;;2.70;99.90;;;;;;4897074;29;20957;-84
2022/01/06 01:45:06;;;;;;;5.87;2.10;;;2.70;99.90;;;;;;4897007;29;20417;-82
2022/01/06 01:47:40;;;;;;;4.77;1.90;;;2.70;99.90;;;;;;4897199;29;20385;-81
2022/01/06 01:50:18;;;;;;;5.87;1.83;;;2.80;99.90;;;;;;4897132;29;20378;-82
2022/01/06 01:52:57;;;;;;;6.97;2.13;;;2.70;99.90;;;;;;4881104;29;20400;-82
2022/01/06 01:55:35;;;;;;;5.93;2.22;;;2.70;99.90;;;;;;4897984;29;20426;-82
2022/01/06 01:58:01;;;;;;;5.90;2.03;;;2.70;99.90;;;;;;4896803;29;20397;-81
2022/01/06 02:00:30;;;;;;;5.10;2.10;;;2.80;99.90;;;;;;4879930;29;20445;-81
2022/01/06 02:02:55;;;;;;;7.03;2.00;;;2.70;99.90;;;;;;4896145;29;20815;-82
2022/01/06 02:05:28;;;;;;;6.07;2.80;;;2.80;99.90;;;;;;4879352;29;20492;-82
2022/01/06 02:07:59;;;;;;;6.75;2.58;;;2.80;99.90;;;;;;4896233;29;20381;-81
2022/01/06 02:10:25;;;;;;;7.03;2.63;;;2.90;99.90;;;;;;4896937;29;20404;-82
2022/01/06 02:12:54;;;;;;;5.60;2.60;;;2.80;99.90;;;;;;4879267;29;20865;-82
2022/01/06 02:15:19;;;;;;;5.88;2.60;;;2.80;99.90;;;;;;4897461;29;20432;-82
2022/01/06 02:17:46;;;;;;;5.80;2.50;;;2.70;99.90;;;;;;4879446;29;20425;-82
2022/01/06 02:20:15;;;;;;;5.77;2.60;;;2.70;99.90;;;;;;4880087;29;20429;-82
2022/01/06 02:22:41;;;;;;;8.57;2.88;;;2.70;99.90;;;;;;4880129;29;20419;-83
2022/01/06 02:25:18;;;;;;;7.10;2.38;;;2.70;99.90;;;;;;4896217;29;20402;-82
2022/01/06 02:27:47;;;;;;;7.47;2.67;;;2.70;99.90;;;;;;4879280;29;20408;-82
2022/01/06 02:30:13;;;;;;;8.30;2.53;;;2.70;99.90;;;;;;4896609;29;20424;-83
2022/01/06 02:32:39;;;;;;;6.70;2.70;;;2.70;99.90;;;;;;4896948;29;20741;-82
2022/01/06 02:35:08;;;;;;;8.38;2.65;;;2.70;99.90;;;;;;4895853;29;20480;-83
2022/01/06 02:37:33;;;;;;;4.88;2.30;;;2.50;99.90;;;;;;4896518;29;20385;-82
2022/01/06 02:40:01;;;;;;;9.20;2.92;;;2.50;99.90;;;;;;4896915;29;20397;-81
2022/01/06 02:42:27;;;;;;;4.90;2.40;;;2.40;99.90;;;;;;4878978;29;20485;-83
2022/01/06 02:44:53;;;;;;;6.57;2.13;;;2.40;99.90;;;;;;4896041;29;20409;-82
2022/01/06 02:47:19;;;;;;;6.80;2.30;;;2.20;99.90;;;;;;4896914;29;20388;-82
2022/01/06 02:49:45;;;;;;;5.53;1.93;;;2.20;99.90;;;;;;4879338;29;20381;-83
2022/01/06 02:52:10;;;;;;;6.43;2.10;;;2.10;99.90;;;;;;4896394;29;20386;-83
2022/01/06 02:54:36;;;;;;;4.30;1.70;;;2.10;99.90;;;;;;4895924;29;20444;-81
2022/01/06 02:57:03;;;;;;;6.05;1.98;;;2.00;99.90;;;;;;4879436;29;20390;-84
2022/01/06 02:59:28;;;;;;;6.65;1.92;;;2.00;99.90;;;;;;4895720;29;20407;-82
2022/01/06 03:01:55;;;;;;;3.85;1.75;;;1.90;99.90;;;;;;4879254;29;20386;-84
2022/01/06 03:04:23;;;;;;;5.90;2.15;;;1.80;99.90;;;;;;4895587;29;20472;-83
2022/01/06 03:06:49;;;;;;;3.75;1.83;;;1.80;99.90;;;;;;4879703;29;20895;-81
2022/01/06 03:09:24;;;;;;;3.97;1.67;;;1.80;99.90;;;;;;4896343;29;20381;-81
2022/01/06 03:11:51;;;;;;;4.60;1.60;;;1.70;99.90;;;;;;4881655;29;20389;-81
2022/01/06 03:14:16;;;;;;;5.13;1.60;;;1.60;99.90;;;;;;4899717;29;20457;-80
2022/01/06 03:16:42;;;;;;;4.20;1.67;;;1.60;99.90;;;;;;4882830;29;20397;-81
2022/01/06 03:19:08;;;;;;;4.97;1.42;;;1.70;99.90;;;;;;4900175;29;20457;-81
2022/01/06 03:21:33;;;;;;;7.63;1.88;;;1.60;99.90;;;;;;4883508;29;20425;-82
2022/01/06 03:23:59;;;;;;;4.33;1.67;;;1.50;99.90;;;;;;4883238;29;20453;-82
2022/01/06 03:26:24;;;;;;;3.90;1.63;;;1.50;99.90;;;;;;4884024;29;20381;-81
2022/01/06 03:28:50;;;;;;;6.17;1.77;;;1.50;99.90;;;;;;4883730;29;20401;-81
2022/01/06 03:31:16;;;;;;;6.30;2.28;;;1.40;99.90;;;;;;4900139;29;20417;-82
2022/01/06 03:33:41;;;;;;;5.13;1.60;;;1.40;99.90;;;;;;4883983;29;20423;-81
2022/01/06 03:36:07;;;;;;;5.67;1.90;;;1.40;99.90;;;;;;4899827;29;20386;-80
2022/01/06 03:38:32;;;;;;;2.73;1.67;;;1.30;99.90;;;;;;4883472;29;20398;-80
2022/01/06 03:40:58;;;;;;;5.23;1.83;;;1.30;99.90;;;;;;4902096;29;20381;-79
2022/01/06 03:43:24;;;;;;;4.72;1.90;;;1.20;99.90;;;;;;4888606;29;20405;-81
2022/01/06 03:45:49;;;;;;;5.07;1.80;;;1.20;99.90;;;;;;4905522;29;20409;-80
2022/01/06 03:48:15;;;;;;;6.03;2.00;;;1.20;99.90;;;;;;4902377;29;20377;-79
2022/01/06 03:50:41;;;;;;;4.47;1.60;;;1.20;99.90;;;;;;4900323;29;20876;-79
2022/01/06 03:53:07;;;;;;;6.65;1.77;;;1.10;99.90;;;;;;4884374;29;20392;-79
2022/01/06 03:55:32;;;;;;;4.50;1.42;;;1.10;99.90;;;;;;4900534;29;20389;-79
2022/01/06 03:57:58;;;;;;;7.88;1.73;;;1.10;99.90;;;;;;4900484;29;20417;-80
2022/01/06 04:00:24;;;;;;;4.30;1.60;;;1.10;99.90;;;;;;4885272;29;20389;-80
2022/01/06 04:02:49;;;;;;;5.07;1.77;;;1.00;99.90;;;;;;4886185;29;20441;-82
2022/01/06 04:05:15;;;;;;;4.97;1.77;;;1.00;99.90;;;;;;4885507;29;20436;-82
2022/01/06 04:07:41;;;;;;;4.37;2.00;;;0.90;99.90;;;;;;4884751;29;20392;-80
2022/01/06 04:10:09;;;;;;;4.45;1.80;;;1.00;99.90;;;;;;4901944;29;20884;-81
2022/01/06 04:12:36;;;;;;;4.40;1.75;;;1.00;99.90;;;;;;4885567;29;20745;-81
2022/01/06 04:15:10;;;;;;;5.60;1.70;;;0.80;99.90;;;;;;4883847;29;20456;-82
2022/01/06 04:17:36;;;;;;;4.60;1.60;;;0.80;99.90;;;;;;4885286;29;20480;-80
2022/01/06 04:20:02;;;;;;;4.43;1.75;;;0.80;99.90;;;;;;4901863;29;20904;-82
2022/01/06 04:22:28;;;;;;;4.97;1.70;;;0.80;99.90;;;;;;4885156;29;20530;-80
2022/01/06 04:24:54;;;;;;;5.32;1.60;;;0.80;99.90;;;;;;4883815;29;20491;-83
2022/01/06 04:27:19;;;;;;;4.40;1.60;;;0.80;99.90;;;;;;4901539;29;20385;-82
2022/01/06 04:29:45;;;;;;;4.90;1.83;;;0.70;99.90;;;;;;4885492;29;20389;-80
2022/01/06 04:32:10;;;;;;;3.97;1.80;;;0.70;99.90;;;;;;4903840;29;20473;-79
2022/01/06 04:34:36;;;;;;;4.60;1.58;;;0.70;99.90;;;;;;4904950;29;20390;-80
2022/01/06 04:37:02;;;;;;;4.30;1.63;;;0.60;99.90;;;;;;4887808;29;20389;-80
2022/01/06 04:39:27;;;;;;;4.70;1.73;;;0.50;99.90;;;;;;4887885;29;20397;-80
2022/01/06 04:41:53;;;;;;;3.90;1.58;;;0.50;99.90;;;;;;4887738;29;20400;-80
2022/01/06 04:44:19;;;;;;;5.75;1.48;;;0.40;99.90;;;;;;4886243;29;20417;-81
2022/01/06 04:46:45;;;;;;;6.60;1.75;;;0.40;99.90;;;;;;4903037;29;20409;-80
2022/01/06 04:49:10;;;;;;;4.20;1.45;;;0.30;99.90;;;;;;4903191;29;20396;-80
2022/01/06 04:51:36;;;;;;;3.63;1.63;;;0.30;99.90;;;;;;4906125;29;20448;-80
2022/01/06 04:54:02;;;;;;;4.13;1.70;;;0.20;99.90;;;;;;4904579;29;20385;-80
2022/01/06 04:56:35;;;;;;;3.67;1.63;;;0.10;99.90;;;;;;4905972;29;20385;-80
2022/01/06 04:59:02;;;;;;;6.10;2.00;;;0.00;99.90;;;;;;4887927;29;20823;-79
2022/01/06 05:01:28;;;;;;;4.55;2.20;;;0.00;99.90;;;;;;4904977;29;20385;-81
2022/01/06 05:03:53;;;;;;;4.88;2.03;;;0.00;99.90;;;;;;4888326;29;20428;-81
2022/01/06 05:06:19;;;;;;;5.83;2.00;;;0.00;99.90;;;;;;4904362;29;20388;-80
2022/01/06 05:08:44;;;;;;;4.53;1.90;;;-0.10;99.90;;;;;;4886437;29;20753;-80
2022/01/06 05:11:10;;;;;;;6.47;2.17;;;-0.10;99.90;;;;;;4885607;29;20394;-81
2022/01/06 05:13:36;;;;;;;5.70;1.70;;;-0.20;99.90;;;;;;4902192;29;20382;-81
2022/01/06 05:16:01;;;;;;;4.37;1.97;;;-0.30;99.90;;;;;;4901678;29;20461;-80
2022/01/06 05:18:27;;;;;;;4.07;1.57;;;-0.30;99.90;;;;;;4902312;29;20377;-81
2022/01/06 05:20:52;;;;;;;3.77;1.73;;;-0.40;99.90;;;;;;4902185;29;20880;-82
2022/01/06 05:23:19;;;;;;;5.37;1.97;;;-0.40;99.90;;;;;;4901819;29;20390;-80
2022/01/06 05:25:45;;;;;;;6.03;1.80;;;-0.50;99.90;;;;;;4884707;29;20423;-80
2022/01/06 05:28:10;;;;;;;3.47;1.60;;;-0.60;99.90;;;;;;4901299;29;20401;-80
2022/01/06 05:30:36;;;;;;;5.93;1.90;;;-0.60;99.90;;;;;;4902072;29;20764;-81
2022/01/06 05:33:02;;;;;;;5.10;1.80;;;-0.70;99.90;;;;;;4901890;29;20396;-80
2022/01/06 05:35:27;;;;;;;6.95;1.98;;;-0.70;99.90;;;;;;4884521;29;20401;-80
2022/01/06 05:37:53;;;;;;;6.93;2.05;;;-0.70;99.90;;;;;;4884682;29;21225;-80
2022/01/06 05:40:19;;;;;;;5.60;2.00;;;-0.80;99.90;;;;;;4901533;29;20403;-82
2022/01/06 05:42:44;;;;;;;4.47;2.00;;;-0.80;99.90;;;;;;4900770;29;20436;-80
2022/01/06 05:45:12;;;;;;;6.00;2.47;;;-0.90;99.90;;;;;;4882840;29;20425;-81
2022/01/06 05:47:37;;;;;;;5.65;2.00;;;-0.90;99.90;;;;;;4884238;29;20893;-82
2022/01/06 05:50:04;;;;;;;6.13;1.90;;;-0.80;99.90;;;;;;4883076;29;20400;-80
2022/01/06 05:52:30;;;;;;;6.85;2.38;;;-0.80;99.90;;;;;;4899909;29;20389;-82
2022/01/06 05:54:55;;;;;;;6.93;2.45;;;-0.70;99.90;;;;;;4898832;29;20381;-81
2022/01/06 05:57:21;;;;;;;7.20;2.22;;;-0.60;99.90;;;;;;4882613;29;20389;-82
2022/01/06 05:59:47;;;;;;;7.65;2.15;;;-0.70;99.90;;;;;;4882207;29;20413;-80
2022/01/06 06:02:12;;;;;;;9.93;2.50;;;-0.70;99.90;;;;;;4899971;29;20382;-81
2022/01/06 06:04:38;;;;;;;7.60;2.40;;;-0.60;99.90;;;;;;4899630;29;20413;-81
2022/01/06 06:07:04;;;;;;;7.20;2.13;;;-0.60;99.90;;;;;;4883375;29;20396;-81
2022/01/06 06:09:29;;;;;;;7.37;2.60;;;-0.60;99.90;;;;;;4899973;29;20725;-80
2022/01/06 06:11:55;;;;;;;8.47;2.60;;;-0.50;99.90;;;;;;4883362;29;20490;-80
2022/01/06 06:14:20;;;;;;;5.75;2.60;;;-0.60;99.90;;;;;;4900047;29;20396;-80
2022/01/06 06:16:46;;;;;;;11.52;3.50;;;-0.60;99.90;;;;;;4883268;29;20725;-81
2022/01/06 06:19:12;;;;;;;5.93;2.28;;;-0.50;99.90;;;;;;4900430;29;20417;-79
2022/01/06 06:21:37;;;;;;;6.72;2.40;;;-0.60;99.90;;;;;;4882311;29;20821;-80
2022/01/06 06:24:03;;;;;;;6.70;2.50;;;-0.50;99.90;;;;;;4899626;29;20413;-80
2022/01/06 06:26:29;;;;;;;8.77;2.60;;;-0.50;99.90;;;;;;4899833;29;20469;-81
2022/01/06 06:28:55;;;;;;;6.65;2.38;;;-0.50;99.90;;;;;;4899662;29;20424;-80
2022/01/06 06:31:20;;;;;;;8.10;2.73;;;-0.50;99.90;;;;;;4882841;29;20400;-80
2022/01/06 06:33:47;;;;;;;9.43;2.47;;;-0.50;99.90;;;;;;4899595;29;20381;-80
2022/01/06 06:36:13;;;;;;;9.02;3.03;;;-0.40;99.90;;;;;;4899442;29;20395;-80
2022/01/06 06:38:38;;;;;;;5.60;2.30;;;-0.50;99.90;;;;;;4882481;29;20470;-81
2022/01/06 06:41:04;;;;;;;8.25;2.67;;;-0.50;99.90;;;;;;4900851;29;20382;-81
2022/01/06 06:43:30;;;;;;;6.68;2.65;;;-0.50;99.90;;;;;;4883893;29;20404;-80
2022/01/06 06:45:55;;;;;;;7.75;2.35;;;-0.50;99.90;;;;;;4882774;29;20441;-81
2022/01/06 06:48:22;;;;;;;8.60;2.80;;;-0.50;99.90;;;;;;4888780;29;20422;-79
2022/01/06 06:50:48;;;;;;;7.18;2.88;;;-0.50;99.90;;;;;;4890035;29;20400;-78
2022/01/06 06:53:13;;;;;;;8.57;3.40;;;-0.50;99.90;;;;;;4887407;29;20754;-79
2022/01/06 06:55:39;;;;;;;8.70;3.53;;;-0.50;99.90;;;;;;4886754;29;20400;-79
2022/01/06 06:58:05;;;;;;;10.75;3.15;;;-0.50;99.90;;;;;;4886511;29;20775;-84
2022/01/06 07:00:30;;;;;;;9.38;3.45;;;-0.60;99.90;;;;;;4885821;29;20404;-79
2022/01/06 07:02:56;;;;;;;6.85;2.90;;;-0.50;99.90;;;;;;4886975;29;20377;-79
2022/01/06 07:05:22;;;;;;;9.37;2.80;;;-0.60;99.90;;;;;;4885842;29;20436;-79
2022/01/06 07:07:48;;;;;;;5.13;2.40;;;-0.50;99.90;;;;;;4885961;29;20749;-79
2022/01/06 07:10:14;;;;;;;8.13;2.50;;;-0.50;99.90;;;;;;4883836;29;20390;-80
2022/01/06 07:12:44;;;;;;;9.68;2.92;;;-0.40;99.90;;;;;;4884213;29;20396;-78
2022/01/06 07:15:11;;;;;;;5.10;2.43;;;-0.40;99.90;;;;;;4883064;29;20393;-79
2022/01/06 07:17:37;;;;;;;7.45;2.78;;;-0.40;99.90;;;;;;4883822;29;20903;-81
2022/01/06 07:20:04;;;;;;;6.73;3.03;;;-0.40;99.90;;;;;;4883757;29;20385;-80
2022/01/06 07:22:30;;;;;;;9.32;2.85;;;-0.40;99.90;;;;;;4884167;29;20402;-80
2022/01/06 07:24:55;;;;;;;8.43;2.97;;;-0.40;99.90;;;;;;4899807;29;20405;-81
2022/01/06 07:27:21;;;;;;;7.80;2.77;;;-0.40;99.90;;;;;;4900077;29;20392;-81
2022/01/06 07:29:47;;;;;;;7.50;2.77;;;-0.30;99.90;;;;;;4899925;29;20381;-80
2022/01/06 07:32:12;;;;;;;7.23;2.90;;;-0.30;99.90;;;;;;4899439;29;20424;-81
2022/01/06 07:34:38;;;;;;;5.85;2.58;;;-0.30;99.90;;;;;;4898340;29;20381;-80
2022/01/06 07:37:04;;;;;;;6.35;2.65;;;-0.20;99.90;;;;;;4882488;29;20955;-81
2022/01/06 07:39:30;;;;;;;7.65;2.75;;;-0.20;99.90;;;;;;4884800;29;20409;-83
2022/01/06 07:41:55;;;;;;;5.72;2.75;;;-0.10;99.90;;;;;;4882430;29;20389;-82
2022/01/06 07:44:21;;;;;;;6.85;2.60;;;-0.10;99.90;;;;;;4882593;29;20477;-81
2022/01/06 07:46:49;;;;;;;7.15;2.72;;;-0.10;99.90;;;;;;4883510;29;20437;-81
2022/01/06 07:49:15;;;;;;;6.95;2.50;;;-0.10;99.90;;;;;;4898726;29;20393;-80
2022/01/06 07:51:41;;;;;;;8.25;2.65;;;-0.10;99.90;;;;;;4898680;29;20488;-82
2022/01/06 07:54:07;;;;;;;6.83;2.83;;;-0.10;99.90;;;;;;4880922;29;20421;-84
2022/01/06 07:56:33;;;;;;;8.98;2.60;;;0.00;99.90;;;;;;4881899;29;20397;-80
2022/01/06 07:58:59;;;;;;;7.90;3.17;;;0.10;99.90;;;;;;4900132;29;20386;-81
2022/01/06 08:01:25;;;;;;;9.63;2.50;;;0.00;99.90;;;;;;4899572;29;20452;-82
2022/01/06 08:03:51;;;;;;;5.30;2.63;;;0.10;99.90;;;;;;4882717;29;20501;-80
2022/01/06 08:06:17;;;;;;;7.27;2.97;;;0.10;99.90;;;;;;4880537;29;20460;-81
2022/01/06 08:08:43;;;;;;;5.60;2.40;;;0.10;99.90;;;;;;4883142;29;20381;-80
2022/01/06 08:11:12;;;;;;;7.22;2.70;;;0.10;99.90;;;;;;4882760;29;20385;-82
2022/01/06 08:13:38;;;;;;;5.93;2.50;;;0.20;99.90;;;;;;4888584;29;20406;-81
2022/01/06 08:16:04;;;;;;;6.53;2.53;;;0.20;99.90;;;;;;4880617;29;20494;-80
2022/01/06 08:18:30;;;;;;;7.68;2.72;;;0.40;99.90;;;;;;4863981;29;20902;-81
2022/01/06 08:20:56;;;;;;;7.07;2.63;;;0.50;99.90;;;;;;4864527;29;20574;-80
2022/01/06 08:23:22;;;;;;;8.32;2.47;;;0.50;99.90;;;;;;4890579;29;20478;-82
2022/01/06 08:25:48;;;;;;;7.40;2.70;;;0.50;99.90;;;;;;4900026;29;20409;-82
2022/01/06 08:28:14;;;;;;;6.95;2.67;;;0.60;99.90;;;;;;4899317;29;20457;-81
2022/01/06 08:30:40;;;;;;;4.75;2.55;;;0.70;99.90;;;;;;4900682;29;20741;-81
2022/01/06 08:33:06;;;;;;;7.88;2.92;;;0.70;99.90;;;;;;4900880;29;20894;-81
2022/01/06 08:35:32;;;;;;;8.05;2.58;;;0.70;99.90;;;;;;4900513;29;20393;-81
2022/01/06 08:37:57;;;;;;;9.20;3.10;;;0.70;99.90;;;;;;4884362;29;20388;-80
2022/01/06 08:40:24;;;;;;;6.40;2.43;;;0.80;99.90;;;;;;4901572;29;20417;-80
2022/01/06 08:42:50;;;;;;;7.23;2.60;;;0.80;99.90;;;;;;4900614;29;20404;-80
2022/01/06 08:45:16;;;;;;;8.38;2.60;;;0.90;99.90;;;;;;4901343;29;20428;-81
2022/01/06 08:47:43;;;;;;;7.22;2.63;;;1.00;99.90;;;;;;4899673;29;20393;-81
2022/01/06 08:50:09;;;;;;;6.05;2.80;;;1.10;99.90;;;;;;4900285;29;20382;-81
2022/01/06 08:52:36;;;;;;;8.77;2.80;;;1.10;99.90;;;;;;4900639;29;20382;-81
2022/01/06 08:55:03;;;;;;;8.65;2.85;;;1.10;99.90;;;;;;4898679;29;20389;-81
2022/01/06 08:57:29;;;;;;;5.70;2.83;;;1.30;99.90;;;;;;4899710;29;20418;-81
2022/01/06 08:59:55;;;;;;;6.22;2.60;;;1.30;99.90;;;;;;4898340;29;20484;-81
2022/01/06 09:02:20;;;;;;;8.32;2.80;;;1.40;99.90;;;;;;4898404;29;20409;-81
2022/01/06 09:04:46;;;;;;;5.47;2.90;;;1.40;99.90;;;;;;4898227;29;20412;-83
2022/01/06 09:07:11;;;;;;;6.47;2.93;;;1.40;99.90;;;;;;4898286;29;20389;-81
2022/01/06 09:09:39;;;;;;;6.17;2.43;;;1.40;99.90;;;;;;4899905;29;20460;-81
2022/01/06 09:12:06;;;;;;;5.93;2.63;;;1.50;99.90;;;;;;4878277;29;20418;-81
2022/01/06 09:14:32;;;;;;;5.68;2.72;;;1.50;99.90;;;;;;4891973;29;20389;-81
2022/01/06 09:16:57;;;;;;;6.15;2.67;;;1.50;99.90;;;;;;4898778;29;20377;-82
2022/01/06 09:19:23;;;;;;;6.57;2.70;;;1.60;99.90;;;;;;4878550;29;20774;-81
2022/01/06 09:21:48;;;;;;;6.30;2.40;;;1.70;99.90;;;;;;4882591;29;20402;-81
2022/01/06 09:24:15;;;;;;;7.80;2.80;;;1.80;99.90;;;;;;4877581;29;20418;-82
2022/01/06 09:26:40;;;;;;;6.28;2.85;;;1.90;99.90;;;;;;4888451;29;20413;-82
2022/01/06 09:29:08;;;;;;;5.63;2.60;;;1.80;99.90;;;;;;4878959;29;20383;-81
2022/01/06 09:31:36;;;;;;;5.18;2.20;;;1.80;99.90;;;;;;4863339;29;20886;-81
2022/01/06 09:34:02;;;;;;;6.17;2.80;;;1.80;99.90;;;;;;4862191;29;20819;-81
2022/01/06 09:36:29;;;;;;;7.03;2.75;;;1.80;99.90;;;;;;4879424;29;20406;-82
2022/01/06 09:38:56;;;;;;;6.53;2.60;;;1.90;99.90;;;;;;4861874;29;20490;-81
2022/01/06 09:41:22;;;;;;;5.03;2.38;;;1.90;99.90;;;;;;4896151;29;20998;-81
2022/01/06 09:43:53;;;;;;;7.88;3.00;;;2.00;99.90;;;;;;4881643;29;20801;-80
2022/01/06 09:46:20;;;;;;;6.93;2.47;;;1.90;99.90;;;;;;4880376;29;20749;-81
2022/01/06 09:48:47;;;;;;;4.82;2.42;;;2.00;99.90;;;;;;4897929;29;20405;-81
2022/01/06 09:51:14;;;;;;;5.73;2.63;;;2.00;99.90;;;;;;4897695;29;20480;-82
2022/01/06 09:53:40;;;;;;;5.18;2.35;;;2.10;99.90;;;;;;4898211;29;20417;-80
2022/01/06 09:56:06;;;;;;;5.60;2.50;;;2.10;99.90;;;;;;4898141;29;20501;-79
2022/01/06 09:58:32;;;;;;;6.65;2.67;;;2.10;99.90;;;;;;4898960;29;20492;-81
2022/01/06 10:00:58;;;;;;;4.60;2.25;;;2.20;99.90;;;;;;4898519;29;20999;-80
2022/01/06 10:03:45;;;;;;;8.27;2.60;;;2.30;99.90;;;;;;4900480;29;20397;-79
2022/01/06 10:06:26;;;;;;;5.60;2.13;;;2.30;99.90;;;;;;4897745;29;20466;-80
2022/01/06 10:09:01;;;;;;;5.95;2.28;;;2.30;99.90;;;;;;4897290;29;20432;-83
2022/01/06 10:11:34;;;;;;;5.82;2.40;;;2.30;99.90;;;;;;4876869;29;20403;-81
2022/01/06 10:14:05;;;;;;;7.15;2.35;;;2.40;99.90;;;;;;4873574;29;20816;-83
2022/01/06 10:16:33;;;;;;;7.53;2.30;;;2.40;99.90;;;;;;4881436;29;20393;-81
2022/01/06 10:19:11;;;;;;;5.30;2.30;;;2.60;99.90;;;;;;4897539;29;20526;-83
2022/01/06 10:21:43;;;;;;;4.88;2.20;;;2.50;99.90;;;;;;4897549;29;20399;-81
2022/01/06 10:24:13;;;;;;;6.57;2.30;;;2.60;99.90;;;;;;4880704;29;20465;-81
2022/01/06 10:27:07;;;;;;;6.15;1.98;;;2.70;99.90;;;;;;4897078;29;20389;-84
2022/01/06 10:29:45;;;;;;;5.23;2.00;;;2.70;99.90;;;;;;4892684;29;20389;-81
2022/01/06 10:32:19;;;;;;;5.90;2.10;;;2.70;99.90;;;;;;4898948;29;20389;-83
2022/01/06 10:34:48;;;;;;;5.70;2.10;;;2.70;99.90;;;;;;4882113;29;20437;-78
2022/01/06 10:37:25;;;;;;;6.65;1.90;;;2.80;99.90;;;;;;4897439;29;20396;-80
2022/01/06 10:39:54;;;;;;;5.75;2.03;;;2.80;99.90;;;;;;4881544;29;20389;-81
2022/01/06 10:42:25;;;;;;;5.95;2.42;;;2.90;99.90;;;;;;4898502;29;22118;-81
2022/01/06 10:44:59;;;;;;;7.03;2.03;;;2.90;99.90;;;;;;4880947;29;20421;-80
2022/01/06 10:47:51;;;;;;;5.05;1.92;;;2.80;99.90;;;;;;4896992;29;20441;-81
2022/01/06 10:50:31;;;;;;;4.97;2.00;;;2.90;99.90;;;;;;4879712;29;20378;-82
2022/01/06 10:53:00;;;;;;;5.10;1.93;;;2.90;99.90;;;;;;4896669;29;20385;-82
2022/01/06 10:55:29;;;;;;;5.07;2.10;;;3.00;99.90;;;;;;4880257;29;20398;-80
2022/01/06 10:58:03;;;;;;;5.65;1.90;;;2.90;99.90;;;;;;4899004;29;20385;-80
2022/01/06 11:00:33;;;;;;;6.80;2.13;;;3.00;99.90;;;;;;4879507;29;20739;-81
2022/01/06 11:03:06;;;;;;;4.20;2.00;;;3.00;99.90;;;;;;4863020;29;20410;-81
2022/01/06 11:05:35;;;;;;;6.38;2.10;;;3.00;99.90;;;;;;4886922;29;20524;-80
2022/01/06 11:08:05;;;;;;;4.43;1.98;;;3.00;99.90;;;;;;4900028;29;20401;-80
2022/01/06 11:10:35;;;;;;;5.18;2.00;;;3.20;99.90;;;;;;4898901;29;20429;-81
2022/01/06 11:13:01;;;;;;;6.75;1.95;;;3.20;99.90;;;;;;4880486;29;20402;-81
2022/01/06 11:15:27;;;;;;;6.25;1.90;;;3.30;99.90;;;;;;4880199;29;20379;-80
2022/01/06 11:17:54;;;;;;;4.55;1.80;;;3.40;99.90;;;;;;4892375;29;20883;-81
2022/01/06 11:20:25;;;;;;;7.32;2.10;;;3.40;99.90;;;;;;4879844;29;20409;-84
2022/01/06 11:22:55;;;;;;;4.88;2.10;;;3.40;99.90;;;;;;4897490;29;20530;-80
2022/01/06 11:25:34;;;;;;;5.10;2.05;;;3.40;99.90;;;;;;4881140;29;20428;-84
2022/01/06 11:28:08;;;;;;;3.80;1.67;;;3.40;99.90;;;;;;4875851;29;20815;-81
2022/01/06 11:30:46;;;;;;;6.28;2.20;;;3.40;99.90;;;;;;4893913;29;20409;-80
2022/01/06 11:33:13;;;;;;;3.47;1.83;;;3.40;99.90;;;;;;4884541;29;20393;-81
2022/01/06 11:35:57;;;;;;;4.37;1.90;;;3.30;99.90;;;;;;4872727;29;20410;-80
2022/01/06 11:38:27;;;;;;;4.05;2.00;;;3.40;99.90;;;;;;4866855;29;20763;-81
2022/01/06 11:41:07;;;;;;;6.60;2.00;;;3.40;99.90;;;;;;4878924;29;20481;-80
2022/01/06 11:43:38;;;;;;;4.57;2.20;;;3.50;99.90;;;;;;4894041;29;20445;-80
2022/01/06 11:46:04;;;;;;;6.13;2.10;;;3.50;99.90;;;;;;4885341;29;20413;-80
2022/01/06 11:48:30;;;;;;;5.80;1.80;;;3.50;99.90;;;;;;4888801;29;20922;-81
2022/01/06 11:50:56;;;;;;;3.70;2.00;;;3.40;99.90;;;;;;4885965;29;20492;-80
2022/01/06 11:53:32;;;;;;;4.45;2.03;;;3.40;99.90;;;;;;4889394;29;20435;-81
2022/01/06 11:55:59;;;;;;;4.50;2.00;;;3.50;99.90;;;;;;4866778;29;20406;-81
2022/01/06 11:58:25;;;;;;;6.15;2.10;;;3.50;99.90;;;;;;4886322;29;20531;-81
2022/01/06 12:01:07;;;;;;;4.22;1.90;;;3.60;99.90;;;;;;4903226;29;20425;-83
2022/01/06 12:03:38;;;;;;;4.32;1.90;;;3.50;99.90;;;;;;4904193;29;20488;-79
2022/01/06 12:06:05;;;;;;;5.57;2.20;;;3.50;99.90;;;;;;4904046;29;20409;-80
2022/01/06 12:08:42;;;;;;;4.47;2.10;;;3.60;99.90;;;;;;4904431;29;20417;-81
2022/01/06 12:11:19;;;;;;;4.03;1.95;;;3.60;99.90;;;;;;4891523;29;20734;-81
2022/01/06 12:13:46;;;;;;;4.15;2.00;;;3.60;99.90;;;;;;4884813;29;20425;-80
2022/01/06 12:16:22;;;;;;;4.25;1.65;;;3.60;99.90;;;;;;4900030;29;20424;-82
2022/01/06 12:18:52;;;;;;;5.18;1.70;;;3.60;99.90;;;;;;4887011;29;20400;-81
2022/01/06 12:21:18;;;;;;;5.20;2.05;;;3.70;99.90;;;;;;4902119;29;20416;-81
2022/01/06 12:23:58;;;;;;;6.60;2.00;;;3.70;99.90;;;;;;4884080;29;20421;-80
2022/01/06 12:26:23;;;;;;;5.85;1.73;;;3.60;99.90;;;;;;4900522;29;20377;-81
2022/01/06 12:28:49;;;;;;;4.73;1.80;;;3.70;99.90;;;;;;4900652;29;20397;-81
2022/01/06 12:31:26;;;;;;;5.32;2.00;;;3.80;99.90;;;;;;4899796;29;20397;-83
2022/01/06 12:33:58;;;;;;;4.50;1.70;;;3.80;99.90;;;;;;4879556;29;20476;-80
2022/01/06 12:36:25;;;;;;;6.05;1.77;;;3.80;99.90;;;;;;4882900;29;20763;-81
2022/01/06 12:38:51;;;;;;;4.97;1.60;;;3.80;99.90;;;;;;4881900;29;21249;-80
2022/01/06 12:41:28;;;;;;;5.68;2.13;;;3.70;99.90;;;;;;4882565;29;20753;-81
2022/01/06 12:43:55;;;;;;;4.55;1.98;;;3.70;99.90;;;;;;4882115;29;20440;-82
2022/01/06 12:46:23;;;;;;;7.45;2.10;;;3.70;99.90;;;;;;4882902;29;20931;-81
2022/01/06 12:48:51;;;;;;;4.20;1.83;;;3.70;99.90;;;;;;4882608;29;20514;-81
2022/01/06 12:51:23;;;;;;;5.55;1.90;;;3.60;99.90;;;;;;4882109;29;20389;-81
2022/01/06 12:53:51;;;;;;;5.03;1.92;;;3.70;99.90;;;;;;4883981;29;20899;-80
2022/01/06 12:56:30;;;;;;;6.20;2.03;;;3.60;99.90;;;;;;4899406;29;20381;-80
2022/01/06 12:59:27;;;;;;;7.30;2.23;;;3.80;99.90;;;;;;4882712;29;20768;-81
2022/01/06 13:02:01;;;;;;;9.32;4.10;;;3.70;99.90;;;;;;4880242;29;20843;-82
2022/01/06 13:04:30;;;;;;;10.60;4.53;;;3.70;99.90;;;;;;4899136;29;20507;-83
2022/01/06 13:07:02;;;;;;;6.57;2.70;;;3.70;99.90;;;;;;4899152;29;20381;-81